Time;durP1;ratioP1;P1;durP2;ratioP2;P2;SDS_P1;SDS_P2;PMS_P1;PMS_P2;Temp;Humidity;BMP_temperature;BMP_pressure;BME280_temperature;BME280_humidity;BME280_pressure;Samples;Min_cycle;Max_cycle;Signal;HPM_P1;HPM_P2
2020/12/20 00:00:35;;;;;;;34.63;17.95;;;;;;;4.30;88.92;98027.03;5025858;28;20128;-61
2020/12/20 00:03:01;;;;;;;34.28;17.23;;;;;;;4.76;88.63;98095.47;5025759;28;20175;-61
2020/12/20 00:05:27;;;;;;;41.40;19.15;;;;;;;4.86;88.91;98130.91;5027361;28;20114;-61
2020/12/20 00:07:53;;;;;;;36.85;17.67;;;;;;;4.90;88.85;98131.94;5025895;28;20033;-61
2020/12/20 00:10:20;;;;;;;38.55;18.25;;;;;;;4.36;88.50;98037.56;5027026;28;20124;-61
2020/12/20 00:12:47;;;;;;;34.97;16.95;;;;;;;4.94;87.85;98130.19;5026887;28;20124;-62
2020/12/20 00:15:13;;;;;;;37.67;17.80;;;;;;;5.08;87.61;98133.72;5025446;28;20049;-61
2020/12/20 00:17:38;;;;;;;37.03;16.80;;;;;;;5.02;87.40;98138.53;5027054;28;20037;-61
2020/12/20 00:20:06;;;;;;;32.55;16.23;;;;;;;4.75;87.15;98082.84;5026809;28;20052;-61
2020/12/20 00:22:32;;;;;;;32.92;15.23;;;;;;;4.71;87.44;98079.09;5027177;28;20041;-62
2020/12/20 00:24:57;;;;;;;31.40;14.63;;;;;;;3.62;87.23;97950.28;5027075;28;20037;-62
2020/12/20 00:27:24;;;;;;;37.35;16.40;;;;;;;4.09;89.14;98032.13;5026776;28;20030;-61
2020/12/20 00:29:50;;;;;;;33.60;15.70;;;;;;;4.64;89.21;98135.22;5025113;28;20033;-62
2020/12/20 00:32:16;;;;;;;33.92;16.55;;;;;;;3.57;91.40;98007.91;5026777;28;20052;-62
2020/12/20 00:34:41;;;;;;;32.67;15.93;;;;;;;4.13;91.22;98085.22;5026518;28;20033;-62
2020/12/20 00:37:07;;;;;;;35.47;16.83;;;;;;;4.64;90.33;98140.72;5026311;28;20045;-62
2020/12/20 00:39:33;;;;;;;37.15;16.23;;;;;;;4.25;88.46;98085.50;5026471;28;20040;-62
2020/12/20 00:42:02;;;;;;;32.88;15.88;;;;;;;4.82;88.30;98138.94;5025143;28;20128;-61
2020/12/20 00:44:28;;;;;;;34.25;16.13;;;;;;;4.87;87.92;98125.13;5026188;28;20034;-62
2020/12/20 00:46:55;;;;;;;37.40;16.65;;;;;;;4.33;87.26;98021.72;5024882;28;20042;-62
2020/12/20 00:49:25;;;;;;;30.98;16.55;;;;;;;4.67;86.75;98067.94;5024154;28;20044;-62
2020/12/20 00:51:52;;;;;;;36.40;16.20;;;;;;;4.93;86.82;98115.69;5024707;28;20030;-62
2020/12/20 00:54:18;;;;;;;36.78;17.58;;;;;;;5.03;86.17;98136.56;5025016;28;20037;-62
2020/12/20 00:56:43;;;;;;;38.03;17.23;;;;;;;5.12;86.34;98140.25;5024620;28;20132;-62
2020/12/20 00:59:09;;;;;;;32.90;16.15;;;;;;;4.43;86.80;98037.16;5024771;28;20037;-62
2020/12/20 01:01:34;;;;;;;35.28;17.40;;;;;;;5.07;86.28;98134.84;5026158;28;20045;-62
2020/12/20 01:04:00;;;;;;;32.22;16.70;;;;;;;5.03;86.69;98133.84;5026144;28;20036;-62
2020/12/20 01:06:25;;;;;;;36.42;16.35;;;;;;;4.45;87.00;98035.75;5026102;28;20064;-62
2020/12/20 01:08:51;;;;;;;28.52;13.98;;;;;;;4.86;85.54;98089.75;5024692;28;20120;-62
2020/12/20 01:11:18;;;;;;;32.50;16.08;;;;;;;4.88;86.09;98110.28;5024477;28;20087;-62
2020/12/20 01:13:50;;;;;;;36.17;17.65;;;;;;;4.53;86.44;98047.94;5025777;28;20044;-62
2020/12/20 01:16:21;;;;;;;37.03;16.35;;;;;;;5.04;87.10;98122.56;5024278;28;20053;-62
2020/12/20 01:18:47;;;;;;;31.95;15.65;;;;;;;4.89;86.89;98119.31;5024047;28;20044;-62
2020/12/20 01:21:14;;;;;;;30.45;14.63;;;;;;;4.87;87.25;98113.34;5025961;28;20037;-63
2020/12/20 01:23:39;;;;;;;36.42;16.67;;;;;;;4.89;87.57;98111.09;5025165;28;20091;-62
2020/12/20 01:26:05;;;;;;;34.70;15.18;;;;;;;4.65;87.76;98112.13;5025806;28;20049;-62
2020/12/20 01:28:31;;;;;;;32.97;15.75;;;;;;;4.43;89.97;98114.78;5024193;28;20037;-62
2020/12/20 01:30:57;;;;;;;36.83;17.60;;;;;;;4.68;89.54;98106.03;5025716;28;20116;-63
2020/12/20 01:33:22;;;;;;;37.78;17.05;;;;;;;4.32;89.29;98025.59;5025711;28;20113;-63
2020/12/20 01:35:49;;;;;;;29.58;16.00;;;;;;;4.93;87.22;98112.13;5025115;28;20500;-63
2020/12/20 01:38:14;;;;;;;33.50;15.48;;;;;;;4.97;86.52;98110.38;5025783;28;20508;-63
2020/12/20 01:40:40;;;;;;;34.13;15.80;;;;;;;4.97;87.02;98113.94;5025765;28;20043;-63
2020/12/20 01:43:05;;;;;;;33.88;16.55;;;;;;;4.90;86.63;98082.53;5025364;28;20037;-62
2020/12/20 01:45:31;;;;;;;28.67;15.07;;;;;;;5.03;85.73;98111.88;5023851;28;20063;-63
2020/12/20 01:47:56;;;;;;;34.50;16.00;;;;;;;4.84;86.10;98092.00;5023323;28;20063;-62
2020/12/20 01:50:22;;;;;;;34.80;17.23;;;;;;;3.87;86.08;97936.06;5024647;28;20508;-62
2020/12/20 01:52:48;;;;;;;40.22;18.08;;;;;;;4.84;87.07;98111.22;5025666;28;20040;-62
2020/12/20 01:55:17;;;;;;;29.83;15.30;;;;;;;4.71;86.92;98093.63;5023268;28;20041;-62
2020/12/20 01:57:42;;;;;;;26.73;12.73;;;;;;;4.94;85.88;98108.22;5025386;28;20499;-62
2020/12/20 02:00:08;;;;;;;33.35;16.17;;;;;;;4.49;86.14;98058.69;5024846;28;20042;-62
2020/12/20 02:02:33;;;;;;;34.95;14.13;;;;;;;4.63;87.62;98075.97;5023710;28;20044;-62
2020/12/20 02:04:59;;;;;;;35.50;16.88;;;;;;;4.82;87.68;98077.78;5025026;28;20037;-62
2020/12/20 02:07:24;;;;;;;32.58;13.88;;;;;;;4.99;86.75;98091.66;5023363;28;20037;-63
2020/12/20 02:09:50;;;;;;;27.83;14.23;;;;;;;4.37;86.03;97978.06;5023471;28;20120;-63
2020/12/20 02:12:15;;;;;;;30.20;13.93;;;;;;;4.31;84.84;98012.19;5024590;28;20072;-62
2020/12/20 02:14:41;;;;;;;27.60;14.68;;;;;;;5.20;84.73;98084.59;5023343;28;20029;-63
2020/12/20 02:17:07;;;;;;;35.28;15.40;;;;;;;5.13;84.81;98068.53;5023220;28;20037;-62
2020/12/20 02:19:33;;;;;;;34.28;15.80;;;;;;;5.25;84.40;98081.72;5023415;28;20040;-63
2020/12/20 02:21:58;;;;;;;29.92;15.35;;;;;;;4.72;84.13;98001.13;5025230;28;20029;-63
2020/12/20 02:24:24;;;;;;;29.38;13.95;;;;;;;4.97;83.22;98025.25;5023540;28;20064;-62
2020/12/20 02:26:49;;;;;;;29.77;14.60;;;;;;;4.72;82.00;97987.41;5024498;28;20034;-63
2020/12/20 02:29:15;;;;;;;28.05;14.35;;;;;;;5.16;83.35;98086.31;5023208;28;20626;-63
2020/12/20 02:31:40;;;;;;;25.33;11.38;;;;;;;5.16;83.25;98083.56;5024589;28;20048;-62
2020/12/20 02:34:07;;;;;;;28.08;14.00;;;;;;;5.18;82.87;98095.06;5024484;28;20034;-62
2020/12/20 02:36:33;;;;;;;28.63;12.98;;;;;;;5.06;83.41;98079.13;5022780;28;20134;-63
2020/12/20 02:38:58;;;;;;;29.40;13.18;;;;;;;4.89;84.08;98083.63;5024709;28;20108;-63
2020/12/20 02:41:24;;;;;;;28.98;12.38;;;;;;;4.90;83.57;98085.28;5024309;28;20764;-62
2020/12/20 02:43:50;;;;;;;27.40;14.43;;;;;;;4.82;84.37;98088.75;5020399;28;20045;-63
2020/12/20 02:46:20;;;;;;;30.63;14.55;;;;;;;4.03;85.06;97967.53;5023015;28;20041;-62
2020/12/20 02:48:46;;;;;;;31.10;13.63;;;;;;;4.57;86.29;98092.81;5010188;28;20500;-63
2020/12/20 02:51:12;;;;;;;30.13;12.85;;;;;;;4.53;86.60;98087.16;5002834;28;20100;-62
2020/12/20 02:53:37;;;;;;;32.28;14.40;;;;;;;1.47;85.97;97586.72;5005149;28;20030;-62
2020/12/20 02:56:03;;;;;;;30.15;14.27;;;;;;;4.68;87.14;98089.56;5005021;28;20523;-62
2020/12/20 02:58:28;;;;;;;30.08;14.40;;;;;;;4.06;87.07;97975.13;5003119;28;20518;-62
2020/12/20 03:00:53;;;;;;;34.40;15.43;;;;;;;4.25;86.15;98091.00;5004777;28;20546;-63
2020/12/20 03:03:19;;;;;;;30.73;13.93;;;;;;;3.82;85.97;97922.50;5004662;28;20579;-62
2020/12/20 03:05:44;;;;;;;33.33;16.38;;;;;;;4.55;86.35;98035.53;5002508;28;20041;-64
2020/12/20 03:08:09;;;;;;;34.88;17.63;;;;;;;5.04;86.46;98092.38;5003281;28;20045;-63
2020/12/20 03:10:35;;;;;;;38.58;17.27;;;;;;;5.07;85.39;98082.69;5002945;28;20041;-62
2020/12/20 03:13:00;;;;;;;38.10;17.83;;;;;;;5.11;85.65;98083.69;5003235;28;20030;-61
2020/12/20 03:15:26;;;;;;;38.03;17.48;;;;;;;4.74;86.35;98037.31;5004509;28;20579;-62
2020/12/20 03:17:51;;;;;;;35.97;17.00;;;;;;;4.82;85.84;98088.75;5004768;28;20041;-63
2020/12/20 03:20:17;;;;;;;37.17;17.00;;;;;;;4.57;85.96;97989.41;5003378;28;20041;-63
2020/12/20 03:22:42;;;;;;;40.72;18.20;;;;;;;5.18;85.52;98097.81;5004632;28;20038;-62
2020/12/20 03:25:08;;;;;;;38.55;16.50;;;;;;;5.16;84.53;98100.03;5002875;28;20088;-62
2020/12/20 03:27:33;;;;;;;34.67;16.98;;;;;;;5.12;84.86;98096.31;5004434;28;20041;-63
2020/12/20 03:29:59;;;;;;;29.45;13.65;;;;;;;4.99;85.48;98097.16;5002973;28;20045;-63
2020/12/20 03:32:24;;;;;;;30.63;14.00;;;;;;;4.50;85.65;98027.41;5004235;28;20040;-63
2020/12/20 03:34:50;;;;;;;32.53;15.45;;;;;;;4.93;85.86;98092.91;5002799;28;20120;-63
2020/12/20 03:37:16;;;;;;;31.73;14.50;;;;;;;4.75;86.81;98108.38;5004227;28;20117;-63
2020/12/20 03:39:41;;;;;;;32.05;14.82;;;;;;;4.28;87.37;98035.53;5002455;28;20044;-62
2020/12/20 03:42:07;;;;;;;29.30;14.65;;;;;;;4.71;88.01;98088.13;5004291;28;20088;-63
2020/12/20 03:44:32;;;;;;;30.55;14.27;;;;;;;4.75;87.34;98088.34;5014788;28;20037;-62
2020/12/20 03:46:58;;;;;;;30.73;14.60;;;;;;;4.15;88.10;98002.66;5022909;28;20033;-63
2020/12/20 03:49:23;;;;;;;35.50;15.93;;;;;;;4.80;87.56;98088.22;5027382;28;20037;-63
2020/12/20 03:51:49;;;;;;;34.25;15.48;;;;;;;4.39;85.97;97993.06;5027262;28;20030;-63
2020/12/20 03:54:14;;;;;;;32.80;14.82;;;;;;;4.96;86.07;98095.03;5027434;28;20033;-63
2020/12/20 03:56:40;;;;;;;31.77;14.80;;;;;;;4.94;86.12;98087.09;5025629;28;20041;-63
2020/12/20 03:59:05;;;;;;;34.15;15.95;;;;;;;4.90;85.62;98105.28;5025837;28;20128;-63
2020/12/20 04:01:31;;;;;;;40.42;18.73;;;;;;;4.77;87.37;98089.69;5025631;28;20584;-62
2020/12/20 04:03:56;;;;;;;42.28;19.27;;;;;;;4.37;87.35;98000.81;5025827;28;20029;-62
2020/12/20 04:06:21;;;;;;;46.17;21.38;;;;;;;4.98;87.48;98092.78;5025501;28;20061;-63
2020/12/20 04:08:47;;;;;;;40.40;20.33;;;;;;;4.96;87.52;98092.28;5025481;28;20484;-63
2020/12/20 04:11:13;;;;;;;39.53;19.92;;;;;;;4.08;87.79;97964.69;5026670;28;20095;-64
2020/12/20 04:13:38;;;;;;;51.63;24.20;;;;;;;4.95;87.83;98087.91;5025732;28;20049;-62
2020/12/20 04:16:11;;;;;;;47.00;23.38;;;;;;;4.90;86.68;98101.75;5027255;28;20048;-62
2020/12/20 04:18:37;;;;;;;48.88;23.52;;;;;;;4.92;87.78;98094.00;5027468;28;20037;-64
2020/12/20 04:21:04;;;;;;;42.00;20.30;;;;;;;5.00;86.84;98101.50;5025685;28;20508;-63
2020/12/20 04:23:30;;;;;;;43.33;20.73;;;;;;;4.87;86.31;98074.91;5027245;28;20034;-62
2020/12/20 04:25:55;;;;;;;44.97;21.88;;;;;;;4.93;86.85;98095.63;5026484;28;20103;-63
2020/12/20 04:28:21;;;;;;;46.70;19.92;;;;;;;4.91;86.93;98100.63;5025330;28;20037;-63
2020/12/20 04:30:47;;;;;;;41.65;19.48;;;;;;;4.85;86.38;98099.09;5015004;28;20034;-62
2020/12/20 04:33:12;;;;;;;41.80;19.33;;;;;;;4.39;87.58;98045.19;5007084;28;20493;-63
2020/12/20 04:35:38;;;;;;;49.58;21.58;;;;;;;4.43;86.86;98021.53;5007082;28;20045;-62
2020/12/20 04:38:04;;;;;;;41.67;20.17;;;;;;;4.90;88.02;98112.72;5006704;28;20038;-63
2020/12/20 04:40:30;;;;;;;44.30;19.15;;;;;;;4.81;87.46;98092.59;5006513;28;20045;-62
2020/12/20 04:43:04;;;;;;;43.60;19.35;;;;;;;4.90;87.92;98104.50;5007285;28;20116;-62
2020/12/20 04:45:31;;;;;;;41.90;19.52;;;;;;;5.01;87.28;98125.91;5024193;28;20115;-62
2020/12/20 04:47:57;;;;;;;46.33;21.27;;;;;;;5.05;87.17;98126.09;5025095;28;20037;-63
2020/12/20 04:50:23;;;;;;;42.70;20.48;;;;;;;4.41;87.14;98084.09;5025900;28;20596;-63
2020/12/20 04:52:53;;;;;;;34.28;16.63;;;;;;;5.13;85.95;98128.13;5024845;28;20037;-62
2020/12/20 04:55:20;;;;;;;37.67;17.05;;;;;;;5.15;86.07;98132.22;5026296;28;20033;-63
2020/12/20 04:57:47;;;;;;;34.70;17.02;;;;;;;5.11;86.46;98124.88;5026289;28;20142;-62
2020/12/20 05:00:12;;;;;;;37.75;17.98;;;;;;;4.58;85.70;98040.38;5024583;28;20060;-62
2020/12/20 05:02:38;;;;;;;35.20;17.10;;;;;;;5.15;85.82;98136.88;5025053;28;20521;-62
2020/12/20 05:05:04;;;;;;;33.67;15.60;;;;;;;5.18;85.47;98137.09;5026363;28;20037;-62
2020/12/20 05:07:31;;;;;;;36.67;17.40;;;;;;;4.66;85.74;98069.84;5025031;28;20045;-63
2020/12/20 05:09:57;;;;;;;42.53;18.48;;;;;;;4.87;85.54;98083.16;5026093;28;20045;-62
2020/12/20 05:12:31;;;;;;;35.53;16.65;;;;;;;5.30;84.49;98140.09;5024668;28;20029;-62
2020/12/20 05:14:58;;;;;;;29.08;15.00;;;;;;;4.85;84.08;98093.63;5026349;28;20346;-62
2020/12/20 05:17:25;;;;;;;34.28;16.10;;;;;;;5.23;84.18;98136.94;5024271;28;20491;-62
2020/12/20 05:19:51;;;;;;;33.33;16.58;;;;;;;5.33;83.56;98144.13;5025854;28;20112;-62
2020/12/20 05:22:18;;;;;;;33.72;15.93;;;;;;;4.99;85.49;98154.81;5023713;28;20128;-62
2020/12/20 05:24:48;;;;;;;36.30;17.13;;;;;;;5.15;85.65;98147.88;5025368;28;20514;-62
2020/12/20 05:27:20;;;;;;;36.70;16.58;;;;;;;4.98;85.63;98115.53;5025673;28;20037;-62
2020/12/20 05:29:49;;;;;;;37.67;18.10;;;;;;;5.02;85.62;98137.72;5025382;28;20033;-63
2020/12/20 05:32:31;;;;;;;35.35;16.10;;;;;;;5.02;86.46;98121.22;5025574;28;20040;-63
2020/12/20 05:35:06;;;;;;;30.17;14.38;;;;;;;5.09;84.39;98144.41;5025628;28;20485;-62
2020/12/20 05:37:34;;;;;;;27.77;13.55;;;;;;;5.16;83.80;98157.72;5023882;28;20194;-62
2020/12/20 05:40:08;;;;;;;29.13;12.65;;;;;;;5.06;83.87;98149.72;5023908;28;20059;-62
2020/12/20 05:42:34;;;;;;;30.95;14.02;;;;;;;5.11;83.36;98157.81;5025284;28;20045;-62
2020/12/20 05:45:11;;;;;;;31.92;13.80;;;;;;;4.89;85.16;98161.31;5024026;28;20026;-63
2020/12/20 05:47:39;;;;;;;29.15;15.15;;;;;;;4.83;85.84;98161.72;5023858;28;20021;-61
2020/12/20 05:50:11;;;;;;;36.72;15.80;;;;;;;3.94;86.16;98012.41;5023182;28;20515;-60
2020/12/20 05:52:37;;;;;;;30.90;14.37;;;;;;;4.86;85.92;98156.44;5025270;28;20041;-61
2020/12/20 05:55:10;;;;;;;31.38;14.63;;;;;;;4.85;85.46;98154.00;5023713;28;20033;-61
2020/12/20 05:57:35;;;;;;;;;;;;;;;4.97;85.51;98165.28;5007975;28;20042;-62
2020/12/20 06:00:03;;;;;;;30.25;15.13;;;;;;;4.91;85.59;98161.00;5005502;28;19921;-61
2020/12/20 06:02:28;;;;;;;37.55;16.63;;;;;;;4.85;86.55;98165.81;5003964;28;20126;-62
2020/12/20 06:04:55;;;;;;;31.42;13.70;;;;;;;4.86;85.94;98161.94;5005863;28;20037;-62
2020/12/20 06:07:26;;;;;;;32.78;14.98;;;;;;;4.86;86.21;98166.59;5003859;28;20042;-62
2020/12/20 06:09:54;;;;;;;32.47;16.17;;;;;;;4.85;86.57;98165.81;5003238;28;20100;-62
2020/12/20 06:12:28;;;;;;;33.30;15.32;;;;;;;4.81;86.99;98174.94;5005258;28;20125;-61
2020/12/20 06:14:55;;;;;;;37.40;16.30;;;;;;;4.74;86.45;98169.88;5003507;28;20037;-61
2020/12/20 06:17:25;;;;;;;35.75;16.27;;;;;;;4.40;86.23;98109.91;5003549;28;20069;-62
2020/12/20 06:19:58;;;;;;;32.92;15.85;;;;;;;4.20;86.93;98082.91;5005071;28;20044;-62
2020/12/20 06:22:29;;;;;;;41.35;17.83;;;;;;;4.75;86.88;98187.97;5004930;28;20044;-61
2020/12/20 06:24:57;;;;;;;32.30;15.07;;;;;;;4.69;86.78;98150.78;5003488;28;20109;-61
2020/12/20 06:27:25;;;;;;;31.17;13.60;;;;;;;3.65;86.44;97992.69;5004858;28;20065;-63
2020/12/20 06:29:54;;;;;;;30.30;15.18;;;;;;;4.31;86.53;98095.28;5003340;28;20034;-62
2020/12/20 06:32:24;;;;;;;35.83;15.40;;;;;;;4.82;86.84;98176.59;5005193;28;20038;-62
2020/12/20 06:34:50;;;;;;;34.13;15.55;;;;;;;4.83;86.12;98172.72;5003197;28;20554;-62
2020/12/20 06:37:21;;;;;;;35.40;15.13;;;;;;;4.80;86.39;98187.88;5004833;28;20042;-62
2020/12/20 06:39:47;;;;;;;41.10;17.50;;;;;;;4.63;87.17;98163.75;5004626;28;20480;-61
2020/12/20 06:42:12;;;;;;;42.25;17.90;;;;;;;4.61;87.88;98144.06;5003175;28;20045;-61
2020/12/20 06:44:38;;;;;;;45.70;18.00;;;;;;;4.58;87.59;98154.84;5010017;28;20364;-62
2020/12/20 06:47:03;;;;;;;37.38;17.15;;;;;;;4.72;87.76;98154.81;5022968;28;20048;-61
2020/12/20 06:49:33;;;;;;;38.47;16.33;;;;;;;4.71;87.45;98169.66;5023082;28;20037;-61
2020/12/20 06:52:28;;;;;;;39.10;16.63;;;;;;;4.80;87.85;98173.31;5022998;28;20107;-62
2020/12/20 06:55:10;;;;;;;41.78;18.48;;;;;;;4.88;88.42;98173.44;5019690;28;20049;-62
2020/12/20 06:57:56;;;;;;;47.25;21.20;;;;;;;4.98;88.57;98183.38;5024532;28;20044;-62
2020/12/20 07:00:37;;;;;;;46.72;22.45;;;;;;;5.00;87.21;98181.13;5023943;28;20551;-62
2020/12/20 07:03:03;;;;;;;51.42;26.38;;;;;;;4.95;87.82;98192.25;5004655;28;20025;-62
2020/12/20 07:05:35;;;;;;;44.17;21.52;;;;;;;4.88;88.01;98192.66;5004589;28;20030;-62
2020/12/20 07:08:11;;;;;;;43.72;21.92;;;;;;;4.86;88.44;98199.53;5004422;28;20417;-62
2020/12/20 07:10:42;;;;;;;40.78;18.60;;;;;;;4.80;89.92;98206.25;5002947;28;20046;-62
2020/12/20 07:13:10;;;;;;;48.63;22.45;;;;;;;4.47;90.75;98170.66;5004830;28;20101;-62
2020/12/20 07:15:54;;;;;;;78.78;34.10;;;;;;;4.77;91.63;98209.63;5004476;28;20057;-62
2020/12/20 07:18:39;;;;;;;50.63;23.63;;;;;;;4.76;92.08;98210.75;5002943;28;20065;-62
2020/12/20 07:21:06;;;;;;;48.90;24.20;;;;;;;4.29;93.88;98157.84;5004398;28;20088;-62
2020/12/20 07:23:32;;;;;;;49.97;22.85;;;;;;;3.49;94.29;98027.78;5005818;28;20185;-62
2020/12/20 07:25:57;;;;;;;64.22;30.83;;;;;;;3.95;94.87;98108.03;5006508;28;20575;-61
2020/12/20 07:28:23;;;;;;;63.83;27.90;;;;;;;4.26;94.40;98157.63;5008090;28;20038;-63
2020/12/20 07:30:48;;;;;;;40.15;18.15;;;;;;;4.45;93.43;98189.38;5008185;28;20037;-63
2020/12/20 07:33:17;;;;;;;36.50;16.33;;;;;;;4.26;94.00;98196.03;5006664;28;20041;-63
2020/12/20 07:35:47;;;;;;;34.88;16.30;;;;;;;4.73;93.93;98227.81;5008010;28;20471;-62
2020/12/20 07:38:14;;;;;;;38.00;17.52;;;;;;;4.82;94.15;98231.47;5006623;28;20025;-62
2020/12/20 07:40:40;;;;;;;36.88;16.90;;;;;;;4.82;93.71;98239.72;5007853;28;20140;-63
2020/12/20 07:43:05;;;;;;;34.47;15.10;;;;;;;4.83;93.43;98230.34;5008253;28;20531;-63
2020/12/20 07:45:31;;;;;;;30.23;13.80;;;;;;;4.61;93.83;98201.69;5017889;28;20037;-63
2020/12/20 07:47:56;;;;;;;31.13;15.40;;;;;;;4.69;94.30;98231.16;5026396;28;20034;-63
2020/12/20 07:50:23;;;;;;;29.95;14.00;;;;;;;4.74;93.59;98240.41;5025680;28;20045;-63
2020/12/20 07:52:49;;;;;;;36.17;16.05;;;;;;;4.79;92.84;98237.56;5026067;28;20041;-63
2020/12/20 07:55:15;;;;;;;30.13;13.25;;;;;;;4.86;92.82;98229.72;5027171;28;20025;-63
2020/12/20 07:57:44;;;;;;;29.45;13.60;;;;;;;5.00;92.21;98227.81;5027149;28;20527;-63
2020/12/20 08:00:10;;;;;;;34.72;13.50;;;;;;;4.81;92.27;98199.63;5026833;28;20069;-63
2020/12/20 08:02:35;;;;;;;33.60;15.57;;;;;;;4.63;91.22;98146.50;5025611;28;20337;-61
2020/12/20 08:05:09;;;;;;;31.40;13.70;;;;;;;5.09;91.35;98223.25;5027247;28;20037;-61
2020/12/20 08:07:34;;;;;;;34.17;16.08;;;;;;;4.51;90.63;98133.28;5027167;28;20040;-62
2020/12/20 08:10:00;;;;;;;29.55;14.07;;;;;;;4.70;88.89;98152.38;5026964;28;20037;-62
2020/12/20 08:12:29;;;;;;;29.35;14.20;;;;;;;5.26;89.47;98226.16;5025250;28;20550;-62
2020/12/20 08:15:07;;;;;;;25.08;11.43;;;;;;;5.25;88.41;98219.84;5027036;28;20029;-62
2020/12/20 08:17:35;;;;;;;30.15;13.07;;;;;;;4.61;88.14;98137.75;5025299;28;20037;-62
2020/12/20 08:20:06;;;;;;;29.33;13.68;;;;;;;5.27;88.19;98212.13;5025416;28;20072;-62
2020/12/20 08:22:33;;;;;;;25.10;11.10;;;;;;;5.32;87.47;98213.94;5025305;28;20037;-61
2020/12/20 08:25:09;;;;;;;25.92;12.80;;;;;;;5.34;86.71;98206.22;5025429;28;20519;-63
2020/12/20 08:27:37;;;;;;;28.23;12.45;;;;;;;5.25;88.13;98208.06;5025622;28;20033;-62
2020/12/20 08:30:07;;;;;;;22.80;11.77;;;;;;;5.42;87.60;98202.75;5026940;28;20041;-63
2020/12/20 08:32:34;;;;;;;25.08;11.07;;;;;;;5.58;85.85;98206.78;5026725;28;20109;-63
2020/12/20 08:35:17;;;;;;;23.42;10.60;;;;;;;5.05;85.78;98143.41;5026471;28;20452;-63
2020/12/20 08:37:44;;;;;;;21.88;10.85;;;;;;;5.45;85.08;98186.47;5024873;28;20030;-63
2020/12/20 08:40:15;;;;;;;25.67;12.00;;;;;;;5.24;85.59;98170.72;5025223;28;20037;-64
2020/12/20 08:42:42;;;;;;;22.00;10.90;;;;;;;5.70;85.42;98216.09;5026599;28;20047;-66
2020/12/20 08:45:19;;;;;;;28.70;11.27;;;;;;;5.41;84.50;98136.00;5026068;28;20052;-64
2020/12/20 08:47:46;;;;;;;20.48;9.55;;;;;;;5.30;83.51;98145.59;5024843;28;20043;-64
2020/12/20 08:50:22;;;;;;;23.92;11.55;;;;;;;2.96;84.53;97777.47;5024281;28;20077;-64
2020/12/20 08:52:47;;;;;;;22.17;10.40;;;;;;;5.77;84.17;98218.44;5024886;28;20188;-64
2020/12/20 08:55:12;;;;;;;24.92;11.55;;;;;;;5.92;82.96;98193.34;5026077;28;20510;-63
2020/12/20 08:57:38;;;;;;;18.30;9.57;;;;;;;5.19;82.77;98093.94;5024794;28;20634;-65
2020/12/20 09:00:13;;;;;;;21.73;10.10;;;;;;;6.00;83.06;98214.59;5026068;28;20059;-63
2020/12/20 09:02:39;;;;;;;18.92;10.15;;;;;;;5.98;82.09;98244.34;5024092;28;20512;-63
2020/12/20 09:05:15;;;;;;;22.65;10.77;;;;;;;6.02;81.84;98206.84;5024288;28;20090;-64
2020/12/20 09:07:44;;;;;;;24.02;11.23;;;;;;;6.12;81.22;98217.59;5026255;28;20054;-64
2020/12/20 09:10:14;;;;;;;23.88;10.93;;;;;;;5.82;81.46;98185.31;5025842;28;20029;-64
2020/12/20 09:12:53;;;;;;;25.65;12.05;;;;;;;5.86;82.64;98217.38;5024549;28;20037;-61
2020/12/20 09:15:23;;;;;;;26.80;10.63;;;;;;;5.93;82.49;98230.69;5024309;28;20095;-63
2020/12/20 09:17:51;;;;;;;26.13;11.48;;;;;;;5.72;82.84;98186.34;5025836;28;20323;-62
2020/12/20 09:20:19;;;;;;;25.52;11.57;;;;;;;5.38;82.87;98141.28;5023874;28;20048;-64
2020/12/20 09:22:48;;;;;;;24.52;12.15;;;;;;;5.76;84.07;98205.78;5024387;28;20038;-63
2020/12/20 09:25:27;;;;;;;24.17;11.00;;;;;;;5.29;83.87;98129.41;5024279;28;20041;-62
2020/12/20 09:27:54;;;;;;;29.02;11.32;;;;;;;5.95;82.95;98203.72;5024518;28;20560;-63
2020/12/20 09:30:41;;;;;;;26.35;11.57;;;;;;;5.97;83.46;98198.72;5025576;28;20274;-63
2020/12/20 09:33:22;;;;;;;25.13;10.77;;;;;;;6.05;82.60;98197.97;5024079;28;20036;-63
2020/12/20 09:35:54;;;;;;;24.75;10.90;;;;;;;6.16;80.71;98204.84;5023931;28;20037;-63
2020/12/20 09:38:19;;;;;;;21.15;10.63;;;;;;;6.27;79.86;98214.47;5025632;28;20033;-63
2020/12/20 09:40:45;;;;;;;25.10;10.68;;;;;;;6.30;79.32;98207.50;5023563;28;20052;-63
2020/12/20 09:43:18;;;;;;;22.48;10.40;;;;;;;6.06;79.21;98174.84;5025359;28;20484;-63
2020/12/20 09:45:45;;;;;;;17.63;9.05;;;;;;;6.02;79.29;98168.34;5024249;28;20034;-63
2020/12/20 09:48:11;;;;;;;22.60;10.70;;;;;;;6.15;79.53;98167.44;5023727;28;20041;-63
2020/12/20 09:50:37;;;;;;;22.60;10.10;;;;;;;5.96;77.98;98107.16;5023343;28;20064;-63
2020/12/20 09:53:02;;;;;;;21.08;10.23;;;;;;;6.33;77.67;98166.44;5023546;28;20048;-63
2020/12/20 09:55:29;;;;;;;21.17;10.30;;;;;;;6.27;79.34;98192.47;5025224;28;20461;-62
2020/12/20 09:57:55;;;;;;;23.35;11.60;;;;;;;5.92;79.79;98130.91;5025165;28;20045;-63
2020/12/20 10:00:21;;;;;;;19.73;8.55;;;;;;;5.88;79.32;98160.16;5024673;28;20026;-62
2020/12/20 10:02:46;;;;;;;18.40;8.98;;;;;;;5.06;81.46;98076.38;5023949;28;20469;-62
2020/12/20 10:05:11;;;;;;;21.10;9.35;;;;;;;5.71;81.36;98183.91;5023129;28;20136;-63
2020/12/20 10:07:37;;;;;;;21.85;10.80;;;;;;;5.06;84.12;98083.81;5025001;28;20574;-63
2020/12/20 10:10:04;;;;;;;28.23;13.00;;;;;;;5.85;82.93;98174.53;5024754;28;20037;-64
2020/12/20 10:12:29;;;;;;;23.15;10.18;;;;;;;5.86;80.94;98098.38;5025282;28;20037;-63
2020/12/20 10:14:55;;;;;;;21.17;10.32;;;;;;;6.54;79.76;98170.28;5025154;28;20044;-64
2020/12/20 10:17:20;;;;;;;21.88;12.73;;;;;;;6.75;78.07;98154.78;5025096;28;20847;-64
2020/12/20 10:19:46;;;;;;;26.73;14.27;;;;;;;6.80;77.68;98154.66;5023174;28;20026;-64
2020/12/20 10:22:11;;;;;;;32.45;15.55;;;;;;;7.07;76.98;98150.84;5023034;28;20496;-64
2020/12/20 10:24:36;;;;;;;32.05;16.45;;;;;;;6.41;75.72;98039.06;5024641;28;20025;-63
2020/12/20 10:27:02;;;;;;;42.88;20.23;;;;;;;7.40;75.56;98146.50;5024608;28;20492;-64
2020/12/20 10:29:27;;;;;;;39.63;19.73;;;;;;;7.11;74.02;98103.03;5024114;28;20067;-64
2020/12/20 10:31:53;;;;;;;41.17;20.15;;;;;;;7.66;73.67;98148.19;5024529;28;20578;-62
2020/12/20 10:34:18;;;;;;;47.88;24.05;;;;;;;5.18;72.90;97784.75;5022874;28;20099;-64
2020/12/20 10:36:44;;;;;;;28.52;14.18;;;;;;;7.14;72.57;98039.06;5023199;28;20091;-64
2020/12/20 10:39:09;;;;;;;27.73;14.50;;;;;;;7.86;71.65;98145.88;5024858;28;20032;-64
2020/12/20 10:41:37;;;;;;;33.97;17.48;;;;;;;7.98;70.27;98122.03;5022439;28;20083;-63
2020/12/20 10:44:03;;;;;;;41.55;21.13;;;;;;;8.23;69.67;98123.13;5024736;28;20302;-64
2020/12/20 10:46:28;;;;;;;32.63;16.40;;;;;;;7.76;71.13;98113.13;5024053;28;20064;-64
2020/12/20 10:48:54;;;;;;;29.73;15.80;;;;;;;8.04;70.23;98133.69;5022871;28;20034;-64
2020/12/20 10:51:20;;;;;;;46.03;23.20;;;;;;;8.04;69.24;98128.16;5022776;28;20133;-64
2020/12/20 10:53:47;;;;;;;36.38;20.20;;;;;;;8.04;70.39;98126.22;5022957;28;20504;-63
2020/12/20 10:56:15;;;;;;;27.92;14.38;;;;;;;8.16;69.22;98120.00;5023680;28;20033;-64
2020/12/20 10:58:42;;;;;;;23.80;12.90;;;;;;;8.01;67.96;98081.94;5028754;28;20213;-63
2020/12/20 11:01:08;;;;;;;26.00;12.45;;;;;;;8.22;67.40;98111.25;5026830;28;20041;-64
2020/12/20 11:03:34;;;;;;;23.45;12.73;;;;;;;8.20;67.89;98096.16;5026956;28;20037;-63
2020/12/20 11:05:59;;;;;;;18.70;11.30;;;;;;;8.37;67.59;98112.69;5026662;28;20099;-62
2020/12/20 11:08:26;;;;;;;16.50;9.23;;;;;;;7.57;65.84;97995.69;5028560;28;20034;-63
2020/12/20 11:10:52;;;;;;;22.65;12.43;;;;;;;8.41;65.32;98119.19;5026572;28;20421;-63
2020/12/20 11:13:17;;;;;;;23.10;11.82;;;;;;;8.33;65.34;98084.13;5026810;28;20039;-65
2020/12/20 11:15:46;;;;;;;12.77;7.70;;;;;;;8.47;62.71;98112.34;5026573;28;20033;-65
2020/12/20 11:18:12;;;;;;;12.95;7.70;;;;;;;8.37;64.37;98112.69;5028301;28;20025;-67
2020/12/20 11:20:37;;;;;;;19.10;9.25;;;;;;;8.16;65.45;98122.78;5026611;28;20486;-65
2020/12/20 11:23:04;;;;;;;12.80;7.53;;;;;;;8.22;65.57;98104.94;5028243;28;20029;-66
2020/12/20 11:25:31;;;;;;;18.05;8.27;;;;;;;7.99;64.96;98086.94;5027431;28;20492;-66
2020/12/20 11:27:56;;;;;;;19.13;11.18;;;;;;;8.19;66.33;98122.16;5026162;28;20057;-65